Huvudsida
METAR-TAF:

METAR-TAF

Flygplatser :

General Ulpiano Paez Airport

Salina, Ecuador

latitud: 02-12-18S, longitud: 080-59-20W, höjd: 5 m

Aktuellt väderrapport

Denna rapport gjordes för 24 minuter sedan, klockan 21:00 UTC
Vind 11 kt från sydväst
Temperatur 26°C
Fuktighet 70%
Tryck 1008 hPa
Sikt 10 km eller mer
Inga moln under 1 500 m eller inga cumulonimbus

METAR: SESA 132100Z 23011KT CAVOK 26/20 Q1008 RMK A2979

Tid: 16:24 (21:24 UTC)


TAF: saknas

Aktuella väderrapporter och prognoser från 4000 flygplatser (METAR- och TAF-rapporter).

De tillgängliga stationerna syns som gula och röda prickar på kartan.

För musen över prickarna för att se namnen på stationerna.

Klicka sedan för att få väderrapporter och prognoser.

För att ändra kartan: Klicka på de gröna knapparna med ett svart kors på för att zooma in; den gröna knappen med ett streck på för att zooma ut; eller på de gröna pilarna för angränsande kartor.


METAR-TAF: